KHFF/HFF METAR and TAF weather

Enter ICAO airport designator
Station Type Date Time Source
KHFF METAR 2019/06/26 05:56 UTC NOAA

KHFF 260556Z AUTO 00000KT 10SM CLR 23/19 A3004 RMK AO2 SLP184 T02250188 10292 20217 50004 $


Station Type Date Time Source
KHFF Decoded METAR 2019/06/26 05:56 UTC NOAA

Mackall U. S. Army Airfield, NC, United States (KHFF) 35-02N 079-30W
Jun 26, 2019 - 01:56 AM EDT / 2019.06.26 0556 UTC
Wind: Calm:0
Visibility: 10 mile(s):0
Sky conditions: clear
Temperature: 72.5 F (22.5 C)
Dew Point: 65.8 F (18.8 C)
Relative Humidity: 79%
Pressure (altimeter): 30.04 in. Hg (1017 hPa)
Pressure tendency: 0.01 inches (0.4 hPa) higher than three hours ago
ob: KHFF 260556Z AUTO 00000KT 10SM CLR 23/19 A3004 RMK AO2 SLP184 T02250188 10292 20217 50004
cycle: 6

Station Type Date Time Source
KHFF TAF UTC NOAA

Error!

Example: see airport list